« Back
NWS Peachtree City, Ga » Text Product » AHN Terminal Aerodrome Forecast


Printer-friendly Version
Current Version              Previous Versions:   1  2  3  4  5  6  7  8  9  

Terminal Aerodrome Forecast

949
FTUS42 KFFC 230500
TAFAHN
TAF
KAHN 230522Z 2306/2406 28004KT P6SM SKC
     FM230800 29004KT 6SM BR FEW005
     FM231400 31007KT P6SM SKC
     FM240400 36006KT P6SM SKC
     FM240500 05006KT P6SM SKC=



USA.gov is the U.S. government's official web portal to all federal, state and local government web resources and services.